Time;durP1;ratioP1;P1;durP2;ratioP2;P2;SDS_P1;SDS_P2;PMS_P1;PMS_P2;Temp;Humidity;BMP_temperature;BMP_pressure;BME280_temperature;BME280_humidity;BME280_pressure;Samples;Min_cycle;Max_cycle;Signal;HPM_P1;HPM_P2
2023/01/30 00:00:59;;;;;;;29.00;17.90;;;;;;;0.78;66.83;101442.41;4184522;28;20033;-64
2023/01/30 00:03:02;;;;;;;22.83;15.20;;;;;;;0.78;67.10;101442.41;4187875;28;20060;-64
2023/01/30 00:05:05;;;;;;;40.60;23.90;;;;;;;0.75;66.81;101442.19;4184496;28;20103;-64
2023/01/30 00:07:08;;;;;;;38.85;21.83;;;;;;;0.76;66.95;101443.94;4176896;28;20411;-64
2023/01/30 00:09:13;;;;;;;28.27;18.27;;;;;;;0.84;67.01;101453.06;4182455;28;20054;-64
2023/01/30 00:11:19;;;;;;;37.63;23.80;;;;;;;0.91;67.24;101460.38;4184698;28;20407;-64
2023/01/30 00:13:22;;;;;;;35.42;22.17;;;;;;;0.95;67.06;101461.47;4188706;28;20044;-64
2023/01/30 00:15:25;;;;;;;26.55;16.48;;;;;;;1.03;66.58;101456.09;4190167;28;20517;-64
2023/01/30 00:17:28;;;;;;;23.75;15.88;;;;;;;1.10;66.49;101456.53;4195753;28;20384;-64
2023/01/30 00:19:30;;;;;;;20.95;14.02;;;;;;;0.88;66.59;101460.19;4191092;28;20040;-64
2023/01/30 00:21:33;;;;;;;20.92;14.43;;;;;;;0.93;67.01;101455.38;4183544;28;20494;-64
2023/01/30 00:23:37;;;;;;;23.73;14.65;;;;;;;1.00;66.86;101460.13;4186865;28;20048;-64
2023/01/30 00:25:40;;;;;;;24.33;15.87;;;;;;;0.93;66.54;101456.25;4189487;28;20090;-64
2023/01/30 00:27:44;;;;;;;22.65;15.07;;;;;;;1.01;67.05;101437.19;4191245;28;20043;-64
2023/01/30 00:29:47;;;;;;;21.75;14.15;;;;;;;1.14;66.50;101425.22;4192546;28;20437;-64
2023/01/30 00:32:05;;;;;;;32.55;22.02;;;;;;;1.11;66.79;101438.72;4194607;28;20048;-64
2023/01/30 00:34:08;;;;;;;26.88;17.58;;;;;;;1.19;66.94;101426.41;4183388;28;20417;-64
2023/01/30 00:36:11;;;;;;;35.33;19.45;;;;;;;1.21;66.60;101420.63;4189649;28;20123;-64
2023/01/30 00:38:14;;;;;;;31.63;18.48;;;;;;;1.22;66.33;101424.06;4191455;28;20502;-64
2023/01/30 00:40:17;;;;;;;26.17;17.05;;;;;;;1.18;66.62;101424.63;4194285;28;20037;-64
2023/01/30 00:47:07;;;;;;;21.70;14.88;;;;;;;0.98;66.96;101425.84;4186792;28;20040;-65
2023/01/30 00:49:11;;;;;;;22.35;14.65;;;;;;;0.84;67.26;101437.69;4185551;28;20045;-65
2023/01/30 00:51:14;;;;;;;20.67;13.88;;;;;;;0.85;67.12;101440.38;4187560;28;20047;-65
2023/01/30 00:53:17;;;;;;;20.30;14.50;;;;;;;0.93;67.26;101433.19;4187137;28;20036;-63
2023/01/30 00:55:19;;;;;;;24.40;14.65;;;;;;;1.02;67.09;101426.16;4190025;28;20037;-62
2023/01/30 00:57:22;;;;;;;19.65;13.93;;;;;;;1.09;67.09;101412.09;4190261;28;20043;-63
2023/01/30 00:59:25;;;;;;;20.90;14.57;;;;;;;1.15;67.07;101415.06;4181314;28;20144;-63
2023/01/30 01:01:30;;;;;;;19.50;13.60;;;;;;;1.22;66.84;101401.88;4196213;28;20580;-63
2023/01/30 01:03:32;;;;;;;22.92;16.33;;;;;;;1.23;66.82;101397.69;4186257;28;20041;-63
2023/01/30 01:05:35;;;;;;;28.35;18.08;;;;;;;1.29;67.11;101389.53;4187954;28;20039;-63
2023/01/30 01:07:38;;;;;;;23.58;15.05;;;;;;;1.29;66.57;101376.72;4193540;28;20124;-63
2023/01/30 01:09:42;;;;;;;23.30;14.98;;;;;;;1.27;66.65;101376.59;4194553;28;20044;-63
2023/01/30 01:11:45;;;;;;;24.60;16.52;;;;;;;1.41;66.60;101374.06;4188593;28;20044;-63
2023/01/30 01:13:48;;;;;;;22.75;15.27;;;;;;;1.32;66.96;101356.41;4181440;28;20037;-63
2023/01/30 01:15:51;;;;;;;23.77;14.80;;;;;;;1.50;66.49;101359.28;4194905;28;20077;-63
2023/01/30 01:17:56;;;;;;;23.35;15.27;;;;;;;1.44;66.13;101352.09;4186488;28;20151;-63
2023/01/30 01:19:58;;;;;;;21.90;14.32;;;;;;;1.43;66.81;101358.00;4171263;28;20091;-63
2023/01/30 01:22:01;;;;;;;24.58;15.27;;;;;;;1.41;66.44;101351.88;4190223;28;20068;-62
2023/01/30 01:24:05;;;;;;;23.25;15.45;;;;;;;1.38;66.44;101357.69;4189379;28;20503;-63
2023/01/30 01:26:08;;;;;;;22.35;15.50;;;;;;;1.33;66.93;101359.06;4182688;28;20033;-63
2023/01/30 01:28:11;;;;;;;23.20;13.60;;;;;;;1.30;66.54;101346.06;4185798;28;20059;-63
2023/01/30 01:30:14;;;;;;;24.63;15.93;;;;;;;1.16;66.32;101349.38;4186757;28;20033;-63
2023/01/30 01:32:20;;;;;;;22.23;14.35;;;;;;;1.00;66.67;101343.22;4188224;28;20066;-63
2023/01/30 01:34:24;;;;;;;24.05;14.13;;;;;;;1.16;66.56;101365.63;4192151;28;20036;-63
2023/01/30 01:36:27;;;;;;;25.55;15.75;;;;;;;1.15;66.31;101374.09;4192075;28;20053;-63
2023/01/30 01:38:51;;;;;;;28.02;16.50;;;;;;;1.06;66.42;101372.59;4187833;28;20050;-65
2023/01/30 01:41:02;;;;;;;30.88;19.13;;;;;;;1.11;67.08;101350.75;4188679;28;20490;-65
2023/01/30 01:43:15;;;;;;;31.10;17.92;;;;;;;1.07;66.53;101336.84;4205300;28;20048;-64
2023/01/30 01:45:21;;;;;;;22.05;14.57;;;;;;;1.04;66.62;101340.09;4188468;28;20067;-62
2023/01/30 01:47:25;;;;;;;20.80;13.90;;;;;;;0.99;66.29;101341.47;4192215;28;20032;-63
2023/01/30 01:49:32;;;;;;;21.77;14.32;;;;;;;1.00;66.57;101348.34;4190407;28;20387;-63
2023/01/30 01:51:38;;;;;;;23.73;14.80;;;;;;;1.13;66.35;101339.81;4193785;28;20040;-63
2023/01/30 01:53:47;;;;;;;21.20;13.73;;;;;;;1.11;66.13;101328.59;4183231;28;20558;-63
2023/01/30 01:55:54;;;;;;;22.98;14.57;;;;;;;1.11;66.68;101335.38;4181839;28;20036;-63
2023/01/30 01:58:02;;;;;;;24.05;14.90;;;;;;;1.08;66.50;101332.63;4189980;28;20029;-63
2023/01/30 02:00:10;;;;;;;24.40;14.48;;;;;;;1.08;66.67;101330.06;4192270;28;20037;-64
2023/01/30 02:02:17;;;;;;;21.30;13.18;;;;;;;1.01;66.60;101336.47;4194151;28;20058;-64
2023/01/30 02:05:00;;;;;;;22.20;13.88;;;;;;;0.95;66.38;101330.91;4181939;28;20037;-64
2023/01/30 02:06:49;;;;;;;22.85;14.68;;;;;;;0.96;66.53;101318.19;4192928;28;20031;-64
2023/01/30 02:08:57;;;;;;;28.25;16.27;;;;;;;0.87;67.07;101320.16;4182575;28;20036;-63
2023/01/30 02:11:05;;;;;;;24.10;14.52;;;;;;;0.88;67.05;101316.81;4189291;28;20041;-63
2023/01/30 02:13:07;;;;;;;22.85;14.90;;;;;;;0.77;67.36;101307.53;4189919;28;20036;-64
2023/01/30 02:15:11;;;;;;;23.85;14.30;;;;;;;0.79;67.17;101300.81;4188285;28;20113;-63
2023/01/30 02:17:14;;;;;;;25.58;16.02;;;;;;;0.80;67.21;101307.72;4181264;28;20044;-63
2023/01/30 02:19:25;;;;;;;26.15;15.65;;;;;;;0.76;67.77;101306.66;4181340;28;20465;-64
2023/01/30 02:22:07;;;;;;;21.25;13.70;;;;;;;0.91;67.42;101303.34;4193452;28;20036;-64
2023/01/30 02:24:29;;;;;;;22.73;14.38;;;;;;;0.91;67.19;101293.97;4187657;28;20128;-64
2023/01/30 02:26:55;;;;;;;22.52;14.75;;;;;;;0.92;67.41;101297.41;4191995;28;20040;-64
2023/01/30 02:29:25;;;;;;;23.48;14.65;;;;;;;0.88;67.26;101291.22;4188233;28;20065;-64
2023/01/30 02:31:41;;;;;;;23.17;14.10;;;;;;;0.85;67.64;101285.91;4194532;28;20044;-64
2023/01/30 02:33:57;;;;;;;22.20;13.38;;;;;;;0.83;67.61;101290.00;4181236;28;20068;-64
2023/01/30 02:36:09;;;;;;;23.38;14.32;;;;;;;0.74;67.62;101291.97;4188622;28;20037;-63
2023/01/30 02:38:30;;;;;;;20.77;13.30;;;;;;;0.77;67.67;101279.38;4185598;28;20032;-63
2023/01/30 02:40:41;;;;;;;23.50;13.85;;;;;;;0.63;67.88;101273.34;4193451;28;20036;-63
2023/01/30 02:42:51;;;;;;;25.15;13.85;;;;;;;0.52;68.46;101273.47;4178239;28;20052;-64
2023/01/30 02:45:01;;;;;;;25.83;14.60;;;;;;;0.66;68.29;101271.88;4181375;28;20047;-63
2023/01/30 02:47:10;;;;;;;23.90;14.80;;;;;;;0.68;68.44;101267.72;4183271;28;20407;-64
2023/01/30 02:49:18;;;;;;;20.85;14.25;;;;;;;0.78;68.59;101276.91;4169427;28;20125;-63
2023/01/30 02:51:24;;;;;;;23.25;14.10;;;;;;;0.79;67.80;101277.78;4188501;28;20041;-63
2023/01/30 02:53:31;;;;;;;22.70;14.23;;;;;;;0.74;68.27;101291.97;4192698;28;20573;-63
2023/01/30 02:55:35;;;;;;;24.58;15.27;;;;;;;0.65;68.24;101294.78;4177744;28;20045;-63
2023/01/30 02:57:38;;;;;;;25.00;14.70;;;;;;;0.68;68.10;101292.44;4180162;28;20494;-63
2023/01/30 02:59:46;;;;;;;23.73;15.15;;;;;;;0.61;68.75;101296.25;4180991;28;20074;-63
2023/01/30 03:02:14;;;;;;;22.35;14.82;;;;;;;0.76;68.58;101290.38;4181752;28;20123;-63
2023/01/30 03:04:42;;;;;;;25.27;15.13;;;;;;;0.94;67.78;101277.94;4188508;28;20493;-63
2023/01/30 03:07:02;;;;;;;26.52;16.63;;;;;;;0.89;67.62;101300.66;4190403;28;20041;-63
2023/01/30 03:09:16;;;;;;;27.33;16.65;;;;;;;0.69;67.52;101300.22;4185275;28;20086;-63
2023/01/30 03:11:24;;;;;;;27.65;17.25;;;;;;;0.72;68.23;101296.09;4180466;28;20036;-63
2023/01/30 03:13:36;;;;;;;28.48;17.67;;;;;;;0.78;67.54;101293.97;4182243;28;20143;-64
2023/01/30 03:15:43;;;;;;;30.95;18.65;;;;;;;0.68;67.62;101288.19;4190619;28;20041;-63
2023/01/30 03:17:48;;;;;;;31.10;19.88;;;;;;;0.63;67.95;101289.56;4179523;28;20522;-63
2023/01/30 03:19:53;;;;;;;30.30;18.60;;;;;;;0.62;67.89;101292.03;4182527;28;20461;-64
2023/01/30 03:21:56;;;;;;;31.67;18.00;;;;;;;0.69;67.89;101284.88;4192939;28;20050;-63
2023/01/30 03:23:59;;;;;;;30.73;18.25;;;;;;;0.67;68.14;101278.78;4179894;28;20072;-63
2023/01/30 03:26:05;;;;;;;30.88;18.95;;;;;;;0.47;68.11;101282.53;4181057;28;20131;-63
2023/01/30 03:28:09;;;;;;;29.42;18.65;;;;;;;0.50;68.35;101280.19;4178394;28;20037;-63
2023/01/30 03:30:13;;;;;;;30.48;17.98;;;;;;;0.53;68.23;101271.81;4184414;28;20028;-64
2023/01/30 03:32:16;;;;;;;31.30;19.55;;;;;;;0.76;68.28;101268.25;4190061;28;20044;-64
2023/01/30 03:34:20;;;;;;;26.55;17.30;;;;;;;0.80;68.13;101271.91;4187499;28;20048;-64
2023/01/30 03:36:24;;;;;;;30.45;18.23;;;;;;;0.75;68.43;101274.16;4178743;28;20032;-64
2023/01/30 03:38:28;;;;;;;28.90;18.10;;;;;;;0.83;68.23;101275.56;4179618;28;20136;-64
2023/01/30 03:40:31;;;;;;;29.88;18.58;;;;;;;0.83;68.36;101269.53;4185360;28;20089;-64
2023/01/30 03:42:34;;;;;;;26.33;17.38;;;;;;;0.74;68.32;101271.50;4193688;28;20047;-64
2023/01/30 03:44:37;;;;;;;29.17;17.63;;;;;;;0.88;67.96;101275.88;4189887;28;20063;-64
2023/01/30 03:46:40;;;;;;;28.05;17.60;;;;;;;0.75;68.14;101278.41;4192367;28;20078;-64
2023/01/30 03:48:42;;;;;;;24.50;15.30;;;;;;;0.84;68.46;101276.44;4187411;28;20037;-63
2023/01/30 03:50:48;;;;;;;26.65;17.23;;;;;;;0.94;68.25;101275.38;4179257;28;20136;-64
2023/01/30 03:52:51;;;;;;;29.10;17.35;;;;;;;0.92;68.44;101272.72;4180584;28;20135;-64
2023/01/30 03:54:56;;;;;;;27.40;16.30;;;;;;;0.97;68.36;101281.59;4188317;28;20184;-64
2023/01/30 03:56:59;;;;;;;25.75;16.23;;;;;;;0.99;68.55;101280.03;4188109;28;20150;-64
2023/01/30 03:59:02;;;;;;;25.70;16.58;;;;;;;1.03;68.09;101281.97;4190234;28;20089;-63
2023/01/30 04:01:13;;;;;;;27.50;16.60;;;;;;;0.84;68.58;101279.00;4173543;28;20108;-64
2023/01/30 04:03:16;;;;;;;25.48;16.20;;;;;;;0.81;68.92;101268.56;4179829;28;20043;-64
2023/01/30 04:05:18;;;;;;;26.23;17.08;;;;;;;0.75;68.79;101271.59;4182629;28;20395;-64
2023/01/30 04:07:31;;;;;;;28.75;16.27;;;;;;;0.86;69.10;101273.22;4184670;28;20064;-64
2023/01/30 04:09:34;;;;;;;26.83;16.35;;;;;;;0.85;69.20;101255.19;4187528;28;20032;-64
2023/01/30 04:11:37;;;;;;;23.10;14.88;;;;;;;0.89;69.13;101251.13;4173147;28;20056;-64
2023/01/30 04:13:40;;;;;;;26.25;16.85;;;;;;;0.91;69.16;101235.09;4164757;28;20046;-64
2023/01/30 04:15:45;;;;;;;30.17;17.48;;;;;;;0.89;68.89;101226.41;4185371;28;20044;-63
2023/01/30 04:18:13;;;;;;;27.73;17.70;;;;;;;0.80;69.09;101228.38;4182206;28;20029;-64
2023/01/30 04:20:25;;;;;;;27.10;16.95;;;;;;;0.76;68.83;101234.09;4181624;28;20041;-64
2023/01/30 04:22:31;;;;;;;26.52;16.60;;;;;;;0.86;68.84;101231.34;4183946;28;20051;-63
2023/01/30 04:24:34;;;;;;;26.70;16.33;;;;;;;0.89;68.93;101238.34;4183984;28;20041;-64
2023/01/30 04:26:37;;;;;;;27.23;16.35;;;;;;;0.96;68.62;101246.50;4187695;28;20415;-63
2023/01/30 04:28:43;;;;;;;28.80;17.52;;;;;;;1.03;68.57;101248.69;4177422;28;20084;-63
2023/01/30 04:30:47;;;;;;;28.75;16.90;;;;;;;0.87;68.74;101251.03;4179478;28;20037;-63
2023/01/30 04:33:16;;;;;;;27.13;17.23;;;;;;;0.84;68.70;101266.19;4177387;28;20401;-64
2023/01/30 04:35:19;;;;;;;30.08;17.38;;;;;;;0.75;69.10;101252.81;4167374;28;20075;-64
2023/01/30 04:37:22;;;;;;;24.70;16.15;;;;;;;0.82;69.04;101260.09;4170378;28;20048;-64
2023/01/30 04:39:27;;;;;;;25.85;15.70;;;;;;;0.83;69.06;101243.94;4191870;28;20277;-64
2023/01/30 04:41:29;;;;;;;26.30;16.58;;;;;;;0.89;69.55;101236.66;4179694;28;20119;-64
2023/01/30 04:43:35;;;;;;;25.75;16.33;;;;;;;0.90;69.42;101227.31;4179983;28;20392;-64
2023/01/30 04:45:58;;;;;;;25.00;16.08;;;;;;;1.06;68.96;101229.22;4179987;28;20056;-64
2023/01/30 04:48:01;;;;;;;27.42;16.13;;;;;;;1.14;68.79;101239.16;4168677;28;20447;-64
2023/01/30 04:50:09;;;;;;;23.33;15.70;;;;;;;1.18;68.77;101224.88;4188135;28;20044;-65
2023/01/30 04:52:12;;;;;;;26.48;15.50;;;;;;;1.28;68.51;101213.56;4168298;28;20041;-65
2023/01/30 04:54:15;;;;;;;23.48;15.45;;;;;;;1.25;68.30;101215.91;4204579;28;20108;-65
2023/01/30 04:56:19;;;;;;;27.80;16.25;;;;;;;1.21;68.58;101204.56;4191424;28;20041;-64
2023/01/30 04:58:24;;;;;;;25.27;16.13;;;;;;;1.17;68.78;101207.75;4173212;28;20033;-64
2023/01/30 05:00:27;;;;;;;22.58;13.65;;;;;;;1.17;68.73;101203.50;4185858;28;20045;-65
2023/01/30 05:02:34;;;;;;;23.90;15.77;;;;;;;1.23;68.85;101195.34;4192834;28;20041;-66
2023/01/30 05:04:37;;;;;;;26.02;16.23;;;;;;;1.32;68.90;101195.91;4193122;28;20554;-66
2023/01/30 05:06:40;;;;;;;22.20;14.02;;;;;;;1.30;68.90;101194.94;4182183;28;20040;-65
2023/01/30 05:08:43;;;;;;;23.65;14.10;;;;;;;1.34;68.87;101180.63;4189107;28;20102;-64
2023/01/30 05:10:48;;;;;;;24.70;15.77;;;;;;;1.29;69.10;101177.78;4183307;28;20082;-64
2023/01/30 05:12:52;;;;;;;22.25;15.10;;;;;;;1.19;69.31;101186.56;4181302;28;20150;-65
2023/01/30 05:14:56;;;;;;;23.83;15.10;;;;;;;1.26;69.32;101181.84;4184410;28;20040;-64
2023/01/30 05:16:58;;;;;;;25.42;15.32;;;;;;;1.29;69.47;101193.16;4191275;28;20032;-65
2023/01/30 05:19:01;;;;;;;23.20;14.75;;;;;;;1.34;69.37;101180.63;4186333;28;20033;-65
2023/01/30 05:21:06;;;;;;;23.80;15.13;;;;;;;1.39;69.53;101181.81;4182035;28;20041;-65
2023/01/30 05:23:09;;;;;;;22.27;13.65;;;;;;;1.39;69.12;101184.38;4184238;28;20048;-65
2023/01/30 05:25:11;;;;;;;22.45;13.85;;;;;;;1.37;69.43;101191.97;4191054;28;20131;-65
2023/01/30 05:27:14;;;;;;;24.80;14.25;;;;;;;1.38;69.25;101182.59;4197989;28;20047;-65
2023/01/30 05:29:18;;;;;;;24.17;14.63;;;;;;;1.43;69.46;101180.31;4199096;28;20040;-65
2023/01/30 05:31:21;;;;;;;24.92;14.50;;;;;;;1.34;69.31;101180.63;4191323;28;20067;-65
2023/01/30 05:33:24;;;;;;;20.13;13.00;;;;;;;1.21;69.95;101179.88;4191205;28;20437;-65
2023/01/30 05:35:27;;;;;;;24.92;14.05;;;;;;;1.19;70.11;101162.63;4177720;28;20492;-65
2023/01/30 05:37:30;;;;;;;22.67;13.70;;;;;;;1.24;70.27;101162.91;4197019;28;20058;-64
2023/01/30 05:39:33;;;;;;;21.02;14.05;;;;;;;1.19;70.32;101160.06;4196829;28;20090;-64
2023/01/30 05:41:36;;;;;;;21.80;13.90;;;;;;;1.24;70.35;101168.91;4199264;28;20064;-64
2023/01/30 05:43:39;;;;;;;19.80;12.85;;;;;;;1.21;70.70;101164.50;4197471;28;20041;-64
2023/01/30 05:45:43;;;;;;;20.50;12.45;;;;;;;1.23;70.26;101164.59;4197596;28;20044;-65
2023/01/30 05:47:51;;;;;;;21.38;13.95;;;;;;;1.32;71.00;101170.28;4199005;28;20064;-64
2023/01/30 05:49:56;;;;;;;23.73;13.20;;;;;;;1.42;70.53;101183.66;4188643;28;20657;-64
2023/01/30 05:51:59;;;;;;;17.70;10.95;;;;;;;1.38;70.34;101192.84;4182348;28;20484;-65
2023/01/30 05:54:02;;;;;;;20.38;12.55;;;;;;;1.37;70.74;101193.63;4182561;28;20564;-65
2023/01/30 05:56:05;;;;;;;19.08;12.15;;;;;;;1.45;70.53;101186.44;4192358;28;20047;-65
2023/01/30 05:58:08;;;;;;;19.38;12.57;;;;;;;1.47;70.67;101182.28;4182671;28;20036;-64
2023/01/30 06:00:12;;;;;;;21.02;12.57;;;;;;;1.49;70.39;101180.69;4185853;28;20043;-65
2023/01/30 06:02:16;;;;;;;20.40;12.50;;;;;;;1.56;70.59;101185.41;4194098;28;20040;-64
2023/01/30 06:04:19;;;;;;;19.83;12.68;;;;;;;1.47;70.13;101177.16;4185419;28;20045;-65
2023/01/30 06:06:23;;;;;;;19.38;12.98;;;;;;;1.30;70.58;101177.00;4194549;28;20036;-65
2023/01/30 06:08:25;;;;;;;20.35;11.98;;;;;;;1.35;70.95;101170.47;4191428;28;20047;-65
2023/01/30 06:10:28;;;;;;;20.50;12.93;;;;;;;1.39;71.28;101169.00;4190634;28;20044;-64
2023/01/30 06:12:31;;;;;;;19.85;11.60;;;;;;;1.34;71.09;101171.28;4174936;28;20545;-65
2023/01/30 06:14:34;;;;;;;18.80;11.18;;;;;;;1.24;71.54;101173.16;4191993;28;20044;-64
2023/01/30 06:16:36;;;;;;;18.95;11.85;;;;;;;1.22;71.97;101170.50;4191064;28;20481;-65
2023/01/30 06:18:41;;;;;;;19.27;10.75;;;;;;;1.35;71.60;101173.03;4191378;28;20055;-65
2023/01/30 06:20:47;;;;;;;17.30;10.57;;;;;;;1.29;71.76;101167.53;4193893;28;20064;-65
2023/01/30 06:22:50;;;;;;;16.23;10.18;;;;;;;1.23;71.92;101159.47;4188885;28;20105;-65
2023/01/30 06:24:53;;;;;;;17.35;11.18;;;;;;;1.24;72.28;101163.78;4187153;28;20094;-65
2023/01/30 06:26:56;;;;;;;17.10;10.32;;;;;;;1.22;72.59;101153.44;4193934;28;20063;-64
2023/01/30 06:28:59;;;;;;;16.30;10.20;;;;;;;1.17;72.77;101161.66;4194913;28;20041;-65
2023/01/30 06:31:01;;;;;;;16.73;10.10;;;;;;;1.22;72.94;101157.69;4194832;28;20532;-64
2023/01/30 06:33:05;;;;;;;16.05;10.07;;;;;;;1.36;72.50;101164.56;4195584;28;20037;-65
2023/01/30 06:35:09;;;;;;;16.10;9.60;;;;;;;1.30;72.61;101153.97;4197866;28;20036;-65
2023/01/30 06:37:12;;;;;;;17.63;10.70;;;;;;;1.31;72.65;101153.16;4198086;28;20132;-65
2023/01/30 06:39:15;;;;;;;14.50;9.63;;;;;;;1.46;72.35;101152.34;4197968;28;20041;-65
2023/01/30 06:41:18;;;;;;;14.38;8.70;;;;;;;1.41;72.84;101162.31;4196719;28;20045;-65
2023/01/30 06:43:21;;;;;;;15.90;9.98;;;;;;;1.44;72.30;101174.41;4197674;28;20056;-64
2023/01/30 06:45:24;;;;;;;16.77;10.32;;;;;;;1.28;72.62;101180.25;4197936;28;20044;-64
2023/01/30 06:47:26;;;;;;;17.25;10.68;;;;;;;1.29;72.70;101175.22;4177726;28;20418;-64
2023/01/30 06:49:29;;;;;;;15.65;10.38;;;;;;;1.42;72.86;101164.09;4188141;28;20133;-65
2023/01/30 06:51:33;;;;;;;17.58;11.20;;;;;;;1.48;72.78;101172.13;4192592;28;20036;-65
2023/01/30 06:53:36;;;;;;;17.13;10.50;;;;;;;1.56;72.12;101162.34;4194007;28;20037;-65
2023/01/30 06:55:39;;;;;;;19.15;11.50;;;;;;;1.49;72.33;101139.72;4185872;28;20045;-65
2023/01/30 06:57:43;;;;;;;15.00;10.38;;;;;;;1.67;72.05;101129.72;4186247;28;20056;-64
2023/01/30 06:59:45;;;;;;;14.77;10.13;;;;;;;1.64;71.90;101135.53;4174861;28;20522;-65
2023/01/30 07:01:48;;;;;;;16.35;9.50;;;;;;;1.72;71.97;101126.66;4194164;28;20032;-65
2023/01/30 07:03:51;;;;;;;16.35;9.93;;;;;;;1.70;71.59;101128.22;4189525;28;20110;-65
2023/01/30 07:05:54;;;;;;;14.75;9.65;;;;;;;1.65;71.79;101127.06;4194255;28;20036;-64
2023/01/30 07:07:58;;;;;;;18.40;10.82;;;;;;;1.64;72.29;101114.16;4194469;28;20123;-64
2023/01/30 07:10:02;;;;;;;16.58;11.10;;;;;;;1.71;72.02;101117.19;4194742;28;20066;-65
2023/01/30 07:12:10;;;;;;;18.05;11.68;;;;;;;1.55;72.08;101129.84;4184615;28;20044;-64
2023/01/30 07:14:13;;;;;;;17.65;11.13;;;;;;;1.58;72.58;101132.59;4190519;28;20032;-65
2023/01/30 07:16:17;;;;;;;15.50;9.90;;;;;;;1.53;72.60;101142.59;4193451;28;20041;-65
2023/01/30 07:18:19;;;;;;;18.27;11.80;;;;;;;1.56;72.52;101149.53;4194929;28;20119;-65
2023/01/30 07:20:22;;;;;;;19.52;12.40;;;;;;;1.57;72.75;101129.13;4191795;28;20139;-65
2023/01/30 07:22:25;;;;;;;21.48;13.30;;;;;;;1.72;72.05;101118.97;4185456;28;20040;-65
2023/01/30 07:24:30;;;;;;;16.33;11.43;;;;;;;1.74;72.03;101126.75;4176912;28;20049;-64
2023/01/30 07:26:32;;;;;;;23.30;13.20;;;;;;;1.81;72.25;101104.91;4191706;28;20036;-64
2023/01/30 07:28:35;;;;;;;17.70;12.15;;;;;;;1.70;71.90;101110.28;4193968;28;20132;-64
2023/01/30 07:30:38;;;;;;;19.20;11.93;;;;;;;1.81;71.77;101105.81;4176231;28;20106;-64
2023/01/30 07:32:41;;;;;;;17.38;11.50;;;;;;;1.77;72.16;101108.06;4192866;28;20123;-65
2023/01/30 07:34:44;;;;;;;18.00;12.40;;;;;;;1.77;72.00;101110.63;4177840;28;20080;-65
2023/01/30 07:36:47;;;;;;;17.67;11.13;;;;;;;1.77;72.11;101115.75;4177605;28;20581;-65
2023/01/30 07:38:49;;;;;;;16.75;10.95;;;;;;;1.74;72.48;101119.06;4191958;28;20036;-64
2023/01/30 07:40:54;;;;;;;17.55;10.32;;;;;;;1.66;72.58;101133.94;4193731;28;20032;-64
2023/01/30 07:42:58;;;;;;;19.17;10.23;;;;;;;1.74;72.29;101126.75;4192311;28;20101;-64
2023/01/30 07:45:01;;;;;;;17.15;11.20;;;;;;;1.70;72.65;101135.91;4191438;28;20099;-64
2023/01/30 07:47:03;;;;;;;15.45;10.43;;;;;;;1.76;72.41;101130.28;4192627;28;20040;-63
2023/01/30 07:49:07;;;;;;;16.55;11.05;;;;;;;1.69;72.46;101123.88;4187605;28;20045;-64
2023/01/30 07:51:10;;;;;;;18.95;10.73;;;;;;;1.66;72.76;101104.88;4193775;28;20028;-64
2023/01/30 07:53:16;;;;;;;15.82;10.07;;;;;;;1.61;72.64;101106.25;4191399;28;20051;-64
2023/01/30 07:55:19;;;;;;;16.25;10.38;;;;;;;1.52;73.43;101114.25;4191226;28;20033;-64
2023/01/30 07:57:23;;;;;;;17.92;11.35;;;;;;;1.47;73.20;101108.00;4187470;28;20088;-64
2023/01/30 07:59:26;;;;;;;20.65;12.13;;;;;;;1.33;73.38;101107.13;4192168;28;20494;-64
2023/01/30 08:01:29;;;;;;;17.90;11.48;;;;;;;1.47;73.71;101096.06;4185960;28;20098;-64
2023/01/30 08:03:32;;;;;;;19.10;11.52;;;;;;;1.43;73.45;101103.47;4192687;28;20087;-64
2023/01/30 08:05:35;;;;;;;18.92;12.57;;;;;;;1.35;74.11;101113.25;4192289;28;20060;-64
2023/01/30 08:07:38;;;;;;;17.48;11.20;;;;;;;1.45;73.33;101112.16;4192074;28;20124;-64
2023/01/30 08:09:40;;;;;;;17.17;11.60;;;;;;;1.33;73.73;101123.41;4194382;28;20055;-64
2023/01/30 08:11:43;;;;;;;18.42;12.88;;;;;;;1.46;73.58;101116.47;4186204;28;20045;-64
2023/01/30 08:13:47;;;;;;;18.52;11.70;;;;;;;1.36;73.84;101121.03;4187466;28;20037;-64
2023/01/30 08:15:50;;;;;;;18.63;12.40;;;;;;;1.41;73.54;101123.88;4191260;28;20036;-64
2023/01/30 08:17:55;;;;;;;17.35;11.43;;;;;;;1.39;73.58;101128.03;4183580;28;20049;-64
2023/01/30 08:19:57;;;;;;;19.90;11.88;;;;;;;1.62;73.31;101123.41;4192689;28;20147;-64
2023/01/30 08:22:00;;;;;;;17.55;11.40;;;;;;;1.56;73.09;101118.78;4192970;28;20037;-64
2023/01/30 08:24:03;;;;;;;16.00;10.85;;;;;;;1.66;72.97;101117.69;4173870;28;20049;-64
2023/01/30 08:26:06;;;;;;;18.67;11.80;;;;;;;1.69;73.31;101118.75;4189320;28;20041;-64
2023/01/30 08:28:09;;;;;;;18.83;11.75;;;;;;;1.75;73.38;101107.97;4190021;28;20498;-64
2023/01/30 08:30:14;;;;;;;18.70;11.82;;;;;;;1.88;73.19;101101.91;4192652;28;20036;-64
2023/01/30 08:32:17;;;;;;;19.77;12.07;;;;;;;1.90;72.78;101101.22;4198513;28;20055;-64
2023/01/30 08:34:19;;;;;;;20.10;11.30;;;;;;;1.96;73.04;101098.13;4198418;28;20510;-64
2023/01/30 08:36:22;;;;;;;17.83;10.40;;;;;;;2.06;72.54;101089.31;4198589;28;20052;-64
2023/01/30 08:38:25;;;;;;;18.30;11.73;;;;;;;2.04;72.87;101090.88;4198854;28;20044;-64
2023/01/30 08:40:28;;;;;;;18.13;11.48;;;;;;;2.07;72.64;101091.06;4199894;28;20461;-63
2023/01/30 08:42:31;;;;;;;15.90;10.07;;;;;;;2.08;73.18;101085.16;4199994;28;20108;-64
2023/01/30 08:44:34;;;;;;;15.93;10.77;;;;;;;2.20;72.63;101093.53;4198373;28;20045;-64
2023/01/30 08:46:39;;;;;;;14.48;9.52;;;;;;;2.20;72.42;101083.28;4181660;28;20049;-64
2023/01/30 08:48:43;;;;;;;15.80;10.40;;;;;;;2.25;72.42;101087.00;4189862;28;20043;-63
2023/01/30 08:50:52;;;;;;;15.73;9.63;;;;;;;2.32;72.69;101090.81;4183235;28;20044;-63
2023/01/30 08:52:56;;;;;;;16.42;10.80;;;;;;;2.27;72.99;101105.06;4183167;28;20045;-65
2023/01/30 08:54:59;;;;;;;16.38;10.25;;;;;;;2.22;73.15;101104.81;4182886;28;20043;-65
2023/01/30 08:57:01;;;;;;;14.48;9.95;;;;;;;2.36;72.79;101105.59;4183226;28;20039;-63
2023/01/30 08:59:06;;;;;;;19.42;10.70;;;;;;;2.46;72.87;101106.13;4183118;28;20086;-65
2023/01/30 09:01:09;;;;;;;13.93;8.55;;;;;;;2.49;73.28;101103.75;4181806;28;20392;-65
2023/01/30 09:03:14;;;;;;;14.80;10.05;;;;;;;2.45;72.71;101102.66;4189866;28;20417;-63
2023/01/30 09:05:17;;;;;;;12.98;8.50;;;;;;;2.52;72.45;101099.66;4192486;28;20043;-64
2023/01/30 09:07:20;;;;;;;20.63;9.35;;;;;;;2.57;72.44;101093.13;4195631;28;20040;-64
2023/01/30 09:09:23;;;;;;;14.02;8.52;;;;;;;2.55;72.68;101094.69;4195281;28;20044;-64
2023/01/30 09:11:26;;;;;;;16.83;9.70;;;;;;;2.48;72.71;101089.13;4195791;28;20060;-65
2023/01/30 09:13:30;;;;;;;14.30;8.88;;;;;;;2.47;72.97;101087.34;4193946;28;20045;-65
2023/01/30 09:15:34;;;;;;;13.32;8.32;;;;;;;2.58;72.67;101076.00;4191388;28;20059;-65
2023/01/30 09:17:37;;;;;;;14.48;7.35;;;;;;;2.61;72.88;101071.06;4197419;28;20468;-65
2023/01/30 09:19:41;;;;;;;14.68;8.13;;;;;;;2.62;71.91;101075.41;4194490;28;20041;-64
2023/01/30 09:21:44;;;;;;;14.20;7.40;;;;;;;2.59;72.36;101063.28;4189734;28;20095;-64
2023/01/30 09:23:47;;;;;;;18.25;8.20;;;;;;;2.58;73.13;101068.31;4194937;28;20452;-65
2023/01/30 09:25:49;;;;;;;15.43;8.60;;;;;;;2.62;72.68;101063.44;4194069;28;20033;-65
2023/01/30 09:27:52;;;;;;;13.48;7.50;;;;;;;2.63;72.69;101069.47;4194607;28;20086;-64
2023/01/30 09:29:55;;;;;;;15.30;7.60;;;;;;;2.59;72.72;101047.88;4191827;28;20494;-65
2023/01/30 09:31:58;;;;;;;13.27;7.28;;;;;;;2.71;72.55;101042.53;4193596;28;20232;-64
2023/01/30 09:34:01;;;;;;;16.05;7.43;;;;;;;2.76;72.27;101046.25;4193980;28;20413;-65
2023/01/30 09:36:06;;;;;;;13.30;6.90;;;;;;;2.77;72.29;101048.03;4192329;28;20597;-64
2023/01/30 09:38:09;;;;;;;14.63;7.25;;;;;;;2.87;72.87;101058.78;4188110;28;20037;-64
2023/01/30 09:40:15;;;;;;;12.27;7.28;;;;;;;2.94;71.83;101060.91;4190210;28;20055;-64